createdAt,value
2018-09-20T00:00:10.060Z,98252.85
2018-09-20T00:01:12.809Z,98254.39
2018-09-20T00:02:15.801Z,98252.45
2018-09-20T00:03:18.569Z,98251.67
2018-09-20T00:04:21.446Z,98249.37
2018-09-20T00:05:24.593Z,98246.45
2018-09-20T00:06:27.490Z,98244.42
2018-09-20T00:07:30.360Z,98245.31
2018-09-20T00:08:33.232Z,98245.28
2018-09-20T00:09:37.548Z,98245.36
2018-09-20T00:10:40.275Z,98242.16
2018-09-20T00:11:43.332Z,98240.63
2018-09-20T00:12:46.169Z,98245.42
2018-09-20T00:13:48.967Z,98240.55
2018-09-20T00:14:51.746Z,98240.78
2018-09-20T00:15:54.460Z,98241.33
2018-09-20T00:16:57.195Z,98241.77
2018-09-20T00:18:00.280Z,98235.11
2018-09-20T00:19:03.184Z,98234.04
2018-09-20T00:20:05.896Z,98230.91
2018-09-20T00:21:08.670Z,98238.09
2018-09-20T00:22:11.728Z,98234.21
2018-09-20T00:23:14.466Z,98227.86
2018-09-20T00:24:17.490Z,98235.63
2018-09-20T00:25:20.201Z,98238.31
2018-09-20T00:26:23.828Z,98239.47
2018-09-20T00:27:26.573Z,98237.80
2018-09-20T00:28:29.350Z,98234.94
2018-09-20T00:29:32.117Z,98237.02
2018-09-20T00:30:36.497Z,98236.66
2018-09-20T00:31:39.244Z,98237.32
2018-09-20T00:32:42.054Z,98235.80
2018-09-20T00:33:44.798Z,98236.27
2018-09-20T00:34:47.550Z,98230.29
2018-09-20T00:35:50.251Z,98237.02
2018-09-20T00:36:53.438Z,98235.80
2018-09-20T00:37:56.189Z,98237.33
2018-09-20T00:39:00.502Z,98238.66
2018-09-20T00:40:03.290Z,98231.63
2018-09-20T00:41:06.050Z,98238.48
2018-09-20T00:42:08.803Z,98237.27
2018-09-20T00:43:11.877Z,98236.69
2018-09-20T00:44:15.394Z,98240.74
2018-09-20T00:45:18.117Z,98240.02
2018-09-20T00:46:22.651Z,98236.91
2018-09-20T00:47:25.377Z,98237.84
2018-09-20T00:48:28.787Z,98232.49
2018-09-20T00:49:31.862Z,98234.08
2018-09-20T00:50:34.634Z,98227.86
2018-09-20T00:51:37.378Z,98227.42
2018-09-20T00:52:40.241Z,98225.38
2018-09-20T00:53:43.653Z,98224.45
2018-09-20T00:54:46.397Z,98230.47
2018-09-20T00:55:49.414Z,98225.46
2018-09-20T00:56:52.818Z,98225.98
2018-09-20T00:57:56.511Z,98225.98
2018-09-20T00:58:59.257Z,98221.05
2018-09-20T01:00:01.958Z,98229.22
2018-09-20T01:01:04.682Z,98214.89
2018-09-20T01:02:07.722Z,98229.32
2018-09-20T01:03:10.507Z,98223.83
2018-09-20T01:04:13.220Z,98221.58
2018-09-20T01:05:17.875Z,98221.56
2018-09-20T01:06:20.707Z,98225.09
2018-09-20T01:07:23.431Z,98224.59
2018-09-20T01:08:26.478Z,98224.22
2018-09-20T01:09:29.279Z,98226.80
2018-09-20T01:10:33.660Z,98226.52
2018-09-20T01:11:36.483Z,98220.89
2018-09-20T01:12:39.232Z,98225.31
2018-09-20T01:13:42.246Z,98223.08
2018-09-20T01:14:45.321Z,98222.77
2018-09-20T01:15:48.035Z,98222.40
2018-09-20T01:16:50.764Z,98216.34
2018-09-20T01:17:54.729Z,98217.22
2018-09-20T01:18:58.550Z,98221.81
2018-09-20T01:20:01.276Z,98222.09
2018-09-20T01:21:04.439Z,98218.05
2018-09-20T01:22:07.223Z,98218.61
2018-09-20T01:23:11.590Z,98218.16
2018-09-20T01:24:14.381Z,98218.75
2018-09-20T01:25:17.195Z,98217.33
2018-09-20T01:26:19.983Z,98218.56
2018-09-20T01:27:23.776Z,98218.22
2018-09-20T01:28:26.515Z,98220.61
2018-09-20T01:29:29.257Z,98219.70
2018-09-20T01:30:32.009Z,98218.05
2018-09-20T01:31:34.786Z,98219.34
2018-09-20T01:32:37.559Z,98218.80
2018-09-20T01:33:40.928Z,98220.59
2018-09-20T01:34:43.679Z,98223.88
2018-09-20T01:35:46.451Z,98225.16
2018-09-20T01:36:49.539Z,98224.98
2018-09-20T01:37:53.380Z,98220.78
2018-09-20T01:38:56.110Z,98228.83
2018-09-20T01:39:59.290Z,98230.66
2018-09-20T01:41:02.058Z,98223.60
2018-09-20T01:42:04.859Z,98224.89
2018-09-20T01:43:07.640Z,98234.41
2018-09-20T01:44:10.387Z,98230.80
2018-09-20T01:45:13.124Z,98234.59
2018-09-20T01:46:16.337Z,98230.98
2018-09-20T01:47:19.702Z,98231.06
2018-09-20T01:48:22.447Z,98232.48
2018-09-20T01:49:25.219Z,98231.93
2018-09-20T01:50:29.021Z,98232.61
2018-09-20T01:51:32.723Z,98229.22
2018-09-20T01:52:35.806Z,98225.93
2018-09-20T01:53:38.538Z,98224.84
2018-09-20T01:54:41.311Z,98223.38
2018-09-20T01:55:44.047Z,98224.89
2018-09-20T01:56:47.399Z,98229.33
2018-09-20T01:57:50.112Z,98225.67
2018-09-20T01:58:53.161Z,98220.58
2018-09-20T01:59:55.907Z,98219.70
2018-09-20T02:00:58.622Z,98218.84
2018-09-20T02:02:01.763Z,98219.67
2018-09-20T02:03:04.534Z,98219.16
2018-09-20T02:04:07.322Z,98215.04
2018-09-20T02:05:10.496Z,98215.42
2018-09-20T02:06:13.672Z,98215.97
2018-09-20T02:07:16.439Z,98213.80
2018-09-20T02:08:20.021Z,98218.41
2018-09-20T02:09:22.742Z,98218.45
2018-09-20T02:10:25.468Z,98216.76
2018-09-20T02:11:28.554Z,98220.84
2018-09-20T02:12:31.287Z,98220.97
2018-09-20T02:13:34.067Z,98221.56
2018-09-20T02:14:36.795Z,98219.83
2018-09-20T02:15:39.546Z,98220.42
2018-09-20T02:16:42.319Z,98221.73
2018-09-20T02:17:45.569Z,98220.27
2018-09-20T02:18:48.365Z,98219.61
2018-09-20T02:19:51.101Z,98226.50
2018-09-20T02:20:53.874Z,98218.10
2018-09-20T02:21:56.651Z,98230.67
2018-09-20T02:22:59.440Z,98229.38
2018-09-20T02:24:02.490Z,98228.36
2018-09-20T02:25:05.233Z,98226.83
2018-09-20T02:26:07.976Z,98231.26
2018-09-20T02:27:10.710Z,98231.78
2018-09-20T02:28:13.469Z,98232.88
2018-09-20T02:29:16.283Z,98228.54
2018-09-20T02:30:19.327Z,98234.23
2018-09-20T02:31:22.147Z,98231.91
2018-09-20T02:32:24.957Z,98231.42
2018-09-20T02:33:27.727Z,98229.62
2018-09-20T02:34:30.504Z,98231.81
2018-09-20T02:35:33.272Z,98230.25
2018-09-20T02:36:36.305Z,98233.84
2018-09-20T02:37:43.224Z,98237.67
2018-09-20T02:38:46.075Z,98235.71
2018-09-20T02:39:48.841Z,98233.33
2018-09-20T02:40:51.599Z,98231.81
2018-09-20T02:41:54.356Z,98234.30
2018-09-20T02:43:00.786Z,98233.34
2018-09-20T02:44:03.708Z,98233.07
2018-09-20T02:45:06.546Z,98236.34
2018-09-20T02:46:09.463Z,98228.99
2018-09-20T02:47:12.209Z,98230.73
2018-09-20T02:48:15.612Z,98234.03
2018-09-20T02:49:18.708Z,98227.31
2018-09-20T02:50:21.479Z,98231.59
2018-09-20T02:51:24.265Z,98224.38
2018-09-20T02:52:27.025Z,98225.75
2018-09-20T02:53:29.847Z,98226.89
2018-09-20T02:54:33.151Z,98236.16
2018-09-20T02:55:37.430Z,98241.11
2018-09-20T02:56:41.178Z,98243.83
2018-09-20T02:57:48.243Z,98241.36
2018-09-20T02:58:52.277Z,98243.28
2018-09-20T02:59:55.625Z,98240.41
2018-09-20T03:00:59.220Z,98233.55
2018-09-20T03:02:03.407Z,98240.97
2018-09-20T03:03:06.523Z,98239.95
2018-09-20T03:04:09.526Z,98237.41
2018-09-20T03:05:13.154Z,98239.89
2018-09-20T03:06:16.772Z,98241.55
2018-09-20T03:07:19.756Z,98237.93
2018-09-20T03:08:24.386Z,98244.33
2018-09-20T03:09:27.837Z,98234.78
2018-09-20T03:10:31.082Z,98246.02
2018-09-20T03:11:34.106Z,98240.40
2018-09-20T03:12:37.595Z,98234.89
2018-09-20T03:13:41.096Z,98239.26
2018-09-20T03:14:45.625Z,98236.72
2018-09-20T03:15:49.649Z,98235.55
2018-09-20T03:16:53.278Z,98242.53
2018-09-20T03:17:56.031Z,98243.11
2018-09-20T03:18:58.800Z,98234.53
2018-09-20T03:20:01.620Z,98240.79
2018-09-20T03:21:04.445Z,98238.44
2018-09-20T03:22:07.204Z,98233.20
2018-09-20T03:23:09.972Z,98237.09
2018-09-20T03:24:12.739Z,98234.00
2018-09-20T03:25:15.665Z,98236.85
2018-09-20T03:26:18.813Z,98234.34
2018-09-20T03:27:21.623Z,98234.45
2018-09-20T03:28:24.404Z,98238.09
2018-09-20T03:29:27.167Z,98232.37
2018-09-20T03:30:30.415Z,98229.86
2018-09-20T03:31:33.211Z,98234.63
2018-09-20T03:32:36.481Z,98237.48
2018-09-20T03:33:41.015Z,98237.72
2018-09-20T03:34:44.037Z,98237.38
2018-09-20T03:35:47.955Z,98237.95
2018-09-20T03:36:53.899Z,98235.17
2018-09-20T03:37:57.108Z,98236.16
2018-09-20T03:39:01.897Z,98234.64
2018-09-20T03:40:08.687Z,98232.33
2018-09-20T03:41:14.574Z,98235.47
2018-09-20T03:42:17.369Z,98231.13
2018-09-20T03:43:20.155Z,98226.69
2018-09-20T03:44:22.903Z,98234.98
2018-09-20T03:45:26.022Z,98233.14
2018-09-20T03:46:28.820Z,98236.34
2018-09-20T03:47:31.575Z,98229.48
2018-09-20T03:48:34.538Z,98235.17
2018-09-20T03:49:37.293Z,98235.95
2018-09-20T03:50:40.192Z,98238.70
2018-09-20T03:51:43.444Z,98233.31
2018-09-20T03:52:47.958Z,98236.46
2018-09-20T03:53:52.987Z,98233.74
2018-09-20T03:54:55.737Z,98234.37
2018-09-20T03:55:58.606Z,98229.59
2018-09-20T03:57:01.337Z,98225.01
2018-09-20T03:58:04.575Z,98226.98
2018-09-20T03:59:07.315Z,98230.77
2018-09-20T04:00:10.088Z,98231.72
2018-09-20T04:01:12.937Z,98232.77
2018-09-20T04:02:15.728Z,98227.27
2018-09-20T04:03:18.467Z,98225.24
2018-09-20T04:04:21.611Z,98227.05
2018-09-20T04:05:25.112Z,98218.06
2018-09-20T04:06:29.396Z,98225.02
2018-09-20T04:07:32.299Z,98221.92
2018-09-20T04:08:35.118Z,98223.03
2018-09-20T04:09:37.964Z,98221.30
2018-09-20T04:10:41.231Z,98222.02
2018-09-20T04:11:44.019Z,98222.24
2018-09-20T04:12:46.877Z,98212.98
2018-09-20T04:13:49.655Z,98214.05
2018-09-20T04:14:52.438Z,98217.47
2018-09-20T04:15:55.835Z,98212.47
2018-09-20T04:16:58.959Z,98214.39
2018-09-20T04:18:01.778Z,98213.16
2018-09-20T04:19:04.567Z,98215.00
2018-09-20T04:20:07.392Z,98211.34
2018-09-20T04:21:10.979Z,98208.64
2018-09-20T04:22:14.463Z,98205.09
2018-09-20T04:23:17.771Z,98203.16
2018-09-20T04:24:20.549Z,98202.70
2018-09-20T04:25:23.305Z,98205.23
2018-09-20T04:26:27.701Z,98203.63
2018-09-20T04:27:30.438Z,98203.72
2018-09-20T04:28:34.525Z,98208.75
2018-09-20T04:29:37.727Z,98207.94
2018-09-20T04:30:40.708Z,98206.69
2018-09-20T04:31:43.833Z,98206.67
2018-09-20T04:32:46.660Z,98210.89
2018-09-20T04:33:49.438Z,98211.33
2018-09-20T04:34:52.313Z,98208.28
2018-09-20T04:35:55.410Z,98207.94
2018-09-20T04:36:59.040Z,98209.42
2018-09-20T04:38:01.799Z,98213.99
2018-09-20T04:39:05.100Z,98213.88
2018-09-20T04:40:07.847Z,98215.02
2018-09-20T04:41:10.589Z,98216.15
2018-09-20T04:42:13.679Z,98220.84
2018-09-20T04:43:16.461Z,98217.52
2018-09-20T04:44:19.344Z,98215.02
2018-09-20T04:45:22.076Z,98216.73
2018-09-20T04:46:25.476Z,98215.83
2018-09-20T04:47:28.242Z,98218.22
2018-09-20T04:48:32.433Z,98222.99
2018-09-20T04:49:35.237Z,98219.78
2018-09-20T04:50:38.246Z,98221.27
2018-09-20T04:51:40.981Z,98225.14
2018-09-20T04:52:43.881Z,98230.72
2018-09-20T04:53:46.643Z,98231.51
2018-09-20T04:54:49.745Z,98225.02
2018-09-20T04:55:53.047Z,98229.70
2018-09-20T04:56:55.781Z,98226.84
2018-09-20T04:57:58.558Z,98229.23
2018-09-20T04:59:02.974Z,98237.33
2018-09-20T05:00:05.845Z,98234.05
2018-09-20T05:01:09.121Z,98232.55
2018-09-20T05:02:11.904Z,98235.08
2018-09-20T05:03:15.617Z,98239.50
2018-09-20T05:04:18.386Z,98236.45
2018-09-20T05:05:22.140Z,98233.23
2018-09-20T05:06:25.800Z,98237.58
2018-09-20T05:07:29.619Z,98237.38
2018-09-20T05:08:33.062Z,98235.55
2018-09-20T05:09:37.832Z,98235.86
2018-09-20T05:10:40.736Z,98243.16
2018-09-20T05:11:44.151Z,98242.02
2018-09-20T05:12:47.047Z,98240.55
2018-09-20T05:13:50.329Z,98238.48
2018-09-20T05:14:53.151Z,98237.57
2018-09-20T05:15:56.886Z,98242.10
2018-09-20T05:16:59.820Z,98240.61
2018-09-20T05:18:02.618Z,98239.47
2018-09-20T05:19:07.002Z,98247.47
2018-09-20T05:20:10.365Z,98248.73
2018-09-20T05:21:13.364Z,98248.30
2018-09-20T05:22:17.375Z,98249.19
2018-09-20T05:23:20.288Z,98246.92
2018-09-20T05:24:26.296Z,98244.17
2018-09-20T05:25:29.141Z,98251.02
2018-09-20T05:26:33.201Z,98249.19
2018-09-20T05:27:36.041Z,98245.00
2018-09-20T05:28:38.835Z,98245.10
2018-09-20T05:29:43.819Z,98243.73
2018-09-20T05:30:47.520Z,98241.55
2018-09-20T05:31:55.076Z,98242.59
2018-09-20T05:45:29.883Z,98254.91
2018-09-20T05:46:32.972Z,98251.27
2018-09-20T05:47:35.858Z,98253.77
2018-09-20T05:48:38.812Z,98248.75
2018-09-20T05:49:41.554Z,98248.19
2018-09-20T05:50:44.990Z,98247.67
2018-09-20T05:51:47.764Z,98245.45
2018-09-20T05:52:50.596Z,98255.87
2018-09-20T05:53:53.363Z,98251.06
2018-09-20T05:54:56.187Z,98246.78
2018-09-20T05:55:58.943Z,98244.12
2018-09-20T05:57:02.062Z,98248.43
2018-09-20T05:58:04.904Z,98248.48
2018-09-20T05:59:07.732Z,98246.44
2018-09-20T06:00:10.608Z,98248.11
2018-09-20T06:01:13.342Z,98242.98
2018-09-20T06:02:16.211Z,98249.59
2018-09-20T06:03:19.328Z,98245.77
2018-09-20T06:04:22.193Z,98251.22
2018-09-20T06:05:24.935Z,98252.33
2018-09-20T06:06:27.698Z,98252.50
2018-09-20T06:07:30.461Z,98250.97
2018-09-20T06:08:33.245Z,98250.28
2018-09-20T06:09:36.338Z,98253.58
2018-09-20T06:10:39.113Z,98255.64
2018-09-20T06:11:41.901Z,98261.29
2018-09-20T06:12:44.658Z,98259.16
2018-09-20T06:13:47.453Z,98260.30
2018-09-20T06:14:50.219Z,98259.29
2018-09-20T06:15:53.381Z,98259.21
2018-09-20T06:16:56.143Z,98258.47
2018-09-20T06:17:58.902Z,98254.14
2018-09-20T06:19:02.073Z,98254.92
2018-09-20T06:20:04.954Z,98256.30
2018-09-20T06:21:08.061Z,98257.55
2018-09-20T06:22:13.099Z,98249.02
2018-09-20T06:23:16.067Z,98255.66
2018-09-20T06:24:18.948Z,98252.80
2018-09-20T06:25:22.474Z,98247.80
2018-09-20T06:26:25.250Z,98248.78
2018-09-20T06:27:28.029Z,98249.11
2018-09-20T06:28:32.280Z,98243.55
2018-09-20T06:29:35.083Z,98240.52
2018-09-20T06:30:37.874Z,98239.08
2018-09-20T06:31:41.711Z,98242.23
2018-09-20T06:32:44.601Z,98239.72
2018-09-20T06:33:47.375Z,98243.00
2018-09-20T06:34:50.514Z,98240.83
2018-09-20T06:35:53.256Z,98237.17
2018-09-20T06:36:56.131Z,98243.17
2018-09-20T06:37:58.892Z,98236.52
2018-09-20T06:39:06.256Z,98239.68
2018-09-20T06:40:09.011Z,98232.35
2018-09-20T06:41:12.414Z,98235.13
2018-09-20T06:42:15.164Z,98233.59
2018-09-20T06:43:18.294Z,98231.63
2018-09-20T06:44:22.630Z,98231.48
2018-09-20T06:45:25.392Z,98231.48
2018-09-20T06:46:28.260Z,98236.17
2018-09-20T06:47:31.545Z,98232.45
2018-09-20T06:48:35.076Z,98239.06
2018-09-20T06:49:37.877Z,98233.45
2018-09-20T06:50:40.650Z,98234.06
2018-09-20T06:51:43.464Z,98235.96
2018-09-20T06:52:46.228Z,98234.12
2018-09-20T06:53:49.271Z,98231.47
2018-09-20T06:54:52.060Z,98241.11
2018-09-20T06:55:56.046Z,98234.34
2018-09-20T06:56:58.827Z,98237.97
2018-09-20T06:58:01.881Z,98237.05
2018-09-20T06:59:05.233Z,98231.75
2018-09-20T07:00:08.464Z,98236.02
2018-09-20T07:01:11.193Z,98235.20
2018-09-20T07:02:14.302Z,98240.12
2018-09-20T07:03:17.250Z,98233.98
2018-09-20T07:04:20.072Z,98229.74
2018-09-20T07:05:22.949Z,98234.50
2018-09-20T07:06:26.044Z,98224.17
2018-09-20T07:07:29.242Z,98235.72
2018-09-20T07:08:32.102Z,98228.85
2018-09-20T07:09:35.973Z,98228.36
2018-09-20T07:10:39.790Z,98229.03
2018-09-20T07:11:44.706Z,98232.16
2018-09-20T07:12:48.581Z,98233.45
2018-09-20T07:13:53.403Z,98230.22
2018-09-20T07:14:56.851Z,98228.58
2018-09-20T07:16:01.389Z,98226.22
2018-09-20T07:17:04.784Z,98222.27
2018-09-20T07:18:07.803Z,98229.09
2018-09-20T07:19:12.630Z,98223.70
2018-09-20T07:20:18.310Z,98222.66
2018-09-20T07:21:21.295Z,98227.20
2018-09-20T07:22:25.339Z,98229.41
2018-09-20T07:23:28.432Z,98230.91
2018-09-20T07:24:31.333Z,98230.75
2018-09-20T07:25:35.409Z,98227.95
2018-09-20T07:26:38.711Z,98227.95
2018-09-20T07:27:43.087Z,98232.05
2018-09-20T07:28:46.066Z,98236.64
2018-09-20T07:29:49.225Z,98231.66
2018-09-20T07:30:54.243Z,98230.03
2018-09-20T07:31:57.604Z,98233.56
2018-09-20T07:33:00.553Z,98229.41
2018-09-20T07:34:03.311Z,98235.05
2018-09-20T07:35:06.896Z,98233.16
2018-09-20T07:36:09.700Z,98238.53
2018-09-20T07:37:12.552Z,98239.53
2018-09-20T07:38:17.395Z,98239.64
2018-09-20T07:39:20.208Z,98237.83
2018-09-20T07:40:23.079Z,98236.43
2018-09-20T07:41:26.822Z,98237.78
2018-09-20T07:42:29.780Z,98240.59
2018-09-20T07:43:32.540Z,98241.23
2018-09-20T07:44:35.770Z,98242.32
2018-09-20T07:45:38.529Z,98251.90
2018-09-20T07:46:41.325Z,98243.02
2018-09-20T07:47:44.132Z,98244.59
2018-09-20T07:48:47.843Z,98242.80
2018-09-20T07:49:51.160Z,98248.28
2018-09-20T07:50:57.987Z,98243.59
2018-09-20T07:52:01.403Z,98238.98
2018-09-20T07:53:04.354Z,98242.79
2018-09-20T07:54:07.160Z,98242.99
2018-09-20T07:55:10.903Z,98241.80
2018-09-20T07:56:13.753Z,98241.53
2018-09-20T07:57:18.370Z,98243.19
2018-09-20T07:58:21.289Z,98240.83
2018-09-20T07:59:25.232Z,98248.00
2018-09-20T08:00:28.169Z,98247.64
2018-09-20T08:01:31.251Z,98247.37
2018-09-20T08:02:34.328Z,98249.84
2018-09-20T08:03:38.276Z,98253.13
2018-09-20T08:04:41.182Z,98255.55
2018-09-20T08:05:44.261Z,98251.72
2018-09-20T08:06:47.235Z,98253.53
2018-09-20T08:07:50.083Z,98252.55
2018-09-20T08:08:52.878Z,98244.58
2018-09-20T08:09:56.137Z,98253.22
2018-09-20T08:10:58.994Z,98254.33
2018-09-20T08:12:01.948Z,98248.87
2018-09-20T08:13:04.876Z,98248.58
2018-09-20T08:14:07.932Z,98250.64
2018-09-20T08:15:11.684Z,98241.39
2018-09-20T08:16:15.284Z,98234.98
2018-09-20T08:17:18.067Z,98236.80
2018-09-20T08:18:21.439Z,98232.50
2018-09-20T08:19:25.557Z,98230.73
2018-09-20T08:20:28.420Z,98225.44
2018-09-20T08:21:33.499Z,98223.88
2018-09-20T08:22:36.706Z,98224.52
2018-09-20T08:23:39.571Z,98223.10
2018-09-20T08:24:42.445Z,98228.30
2018-09-20T08:25:47.039Z,98221.30
2018-09-20T08:26:50.303Z,98222.09
2018-09-20T08:27:53.380Z,98222.64
2018-09-20T08:28:56.702Z,98224.84
2018-09-20T08:30:01.350Z,98217.84
2018-09-20T08:31:04.153Z,98221.66
2018-09-20T08:32:07.754Z,98220.47
2018-09-20T08:33:10.568Z,98215.94
2018-09-20T08:34:13.366Z,98221.25
2018-09-20T08:35:16.517Z,98221.11
2018-09-20T08:36:20.902Z,98223.86
2018-09-20T08:37:23.797Z,98229.39
2018-09-20T08:38:26.772Z,98226.83
2018-09-20T08:39:29.832Z,98227.11
2018-09-20T08:40:33.836Z,98229.34
2018-09-20T08:41:37.045Z,98228.34
2018-09-20T08:42:39.787Z,98230.97
2018-09-20T08:43:42.594Z,98225.30
2018-09-20T08:44:45.447Z,98232.82
2018-09-20T08:45:48.332Z,98231.27
2018-09-20T08:46:51.216Z,98226.85
2018-09-20T08:47:54.549Z,98232.72
2018-09-20T08:49:01.772Z,98232.95
2018-09-20T08:50:04.563Z,98232.52
2018-09-20T08:51:07.402Z,98231.97
2018-09-20T08:52:10.242Z,98233.41
2018-09-20T08:53:13.040Z,98224.13
2018-09-20T08:54:16.543Z,98231.41
2018-09-20T08:55:19.530Z,98232.05
2018-09-20T08:56:22.614Z,98229.23
2018-09-20T08:57:25.426Z,98226.98
2018-09-20T08:58:32.553Z,98226.82
2018-09-20T08:59:35.687Z,98232.26
2018-09-20T09:00:39.424Z,98238.63
2018-09-20T09:01:42.893Z,98230.47
2018-09-20T09:02:46.544Z,98231.62
2018-09-20T09:03:51.420Z,98227.41
2018-09-20T09:04:56.440Z,98227.25
2018-09-20T09:05:59.973Z,98238.45
2018-09-20T09:08:07.554Z,98234.89
2018-09-20T09:09:12.663Z,98250.53
2018-09-20T09:10:15.697Z,98232.47
2018-09-20T09:11:19.172Z,98238.43
2018-09-20T09:12:23.274Z,98237.18
2018-09-20T09:13:26.095Z,98232.28
2018-09-20T09:14:28.884Z,98234.31
2018-09-20T09:15:31.670Z,98235.68
2018-09-20T09:16:34.432Z,98232.98
2018-09-20T09:17:38.671Z,98229.70
2018-09-20T09:18:42.043Z,98230.95
2018-09-20T09:19:44.822Z,98226.48
2018-09-20T09:20:47.694Z,98224.07
2018-09-20T09:21:51.307Z,98224.81
2018-09-20T09:22:54.343Z,98228.32
2018-09-20T09:23:58.064Z,98219.16
2018-09-20T09:25:01.244Z,98214.55
2018-09-20T09:26:05.044Z,98211.57
2018-09-20T09:27:08.183Z,98222.86
2018-09-20T09:28:13.347Z,98227.20
2018-09-20T09:29:17.263Z,98204.36
2018-09-20T09:30:20.722Z,98219.88
2018-09-20T09:31:25.669Z,98234.60
2018-09-20T09:32:28.590Z,98227.77
2018-09-20T09:33:31.329Z,98225.97
2018-09-20T09:34:34.698Z,98215.08
2018-09-20T09:35:37.499Z,98211.08
2018-09-20T09:36:40.409Z,98217.00
2018-09-20T09:37:43.971Z,98220.16
2018-09-20T09:38:46.838Z,98221.59
2018-09-20T09:39:50.347Z,98209.82
2018-09-20T09:40:53.166Z,98215.17
2018-09-20T09:41:56.427Z,98215.16
2018-09-20T09:43:01.385Z,98211.53
2018-09-20T09:44:04.503Z,98208.37
2018-09-20T09:45:07.286Z,98206.29
2018-09-20T09:46:12.546Z,98213.45
2018-09-20T09:47:15.351Z,98208.72
2018-09-20T09:48:18.890Z,98203.45
2018-09-20T09:49:21.664Z,98219.53
2018-09-20T09:50:24.844Z,98208.43
2018-09-20T09:51:28.350Z,98202.08
2018-09-20T09:52:31.151Z,98204.50
2018-09-20T09:53:33.937Z,98210.30
2018-09-20T09:54:38.298Z,98205.36
2018-09-20T09:55:41.103Z,98198.31
2018-09-20T09:56:44.296Z,98196.74
2018-09-20T09:57:52.694Z,98190.34
2018-09-20T09:58:55.483Z,98192.31
2018-09-20T09:59:58.311Z,98184.27
2018-09-20T10:01:01.148Z,98188.55
2018-09-20T10:02:05.455Z,98178.98
2018-09-20T10:03:09.428Z,98177.05
2018-09-20T10:04:12.553Z,98164.92
2018-09-20T10:05:17.083Z,98160.52
2018-09-20T10:06:19.958Z,98163.45
2018-09-20T10:07:22.746Z,98177.41
2018-09-20T10:08:26.289Z,98166.59
2018-09-20T10:09:29.446Z,98166.97
2018-09-20T10:10:33.280Z,98173.68
2018-09-20T10:11:37.043Z,98174.88
2018-09-20T10:12:40.956Z,98168.95
2018-09-20T10:13:44.123Z,98173.29
2018-09-20T10:14:47.669Z,98177.22
2018-09-20T10:15:51.265Z,98167.28
2018-09-20T10:16:54.127Z,98174.27
2018-09-20T10:17:57.536Z,98175.85
2018-09-20T10:19:00.325Z,98177.58
2018-09-20T10:20:03.212Z,98171.04
2018-09-20T10:21:06.768Z,98169.92
2018-09-20T10:22:09.627Z,98166.92
2018-09-20T10:23:12.406Z,98158.55
2018-09-20T10:24:15.627Z,98170.48
2018-09-20T10:25:19.236Z,98176.39
2018-09-20T10:26:23.464Z,98167.95
2018-09-20T10:27:26.694Z,98154.82
2018-09-20T10:28:30.016Z,98163.34
2018-09-20T10:29:32.847Z,98152.86
2018-09-20T10:30:37.359Z,98150.09
2018-09-20T10:31:40.951Z,98160.75
2018-09-20T10:45:07.565Z,98156.27
2018-09-20T10:46:11.123Z,98148.33
2018-09-20T10:47:15.157Z,98146.28
2018-09-20T10:48:17.980Z,98155.67
2018-09-20T10:49:21.487Z,98125.47
2018-09-20T10:50:24.692Z,98125.29
2018-09-20T10:51:27.477Z,98121.98
2018-09-20T10:52:30.405Z,98125.75
2018-09-20T10:53:33.214Z,98138.44
2018-09-20T10:54:36.019Z,98130.30
2018-09-20T10:55:38.854Z,98142.03
2018-09-20T10:56:41.958Z,98137.45
2018-09-20T10:57:44.768Z,98137.73
2018-09-20T10:58:47.731Z,98135.22
2018-09-20T10:59:50.735Z,98135.86
2018-09-20T11:00:53.546Z,98136.19
2018-09-20T11:01:56.453Z,98155.86
2018-09-20T11:02:59.735Z,98148.34
2018-09-20T11:04:03.156Z,98140.56
2018-09-20T11:05:07.394Z,98129.88
2018-09-20T11:06:11.871Z,98130.66
2018-09-20T11:07:14.858Z,98140.42
2018-09-20T11:08:17.624Z,98150.22
2018-09-20T11:09:22.124Z,98136.61
2018-09-20T11:10:24.876Z,98132.53
2018-09-20T11:11:27.623Z,98142.02
2018-09-20T11:12:30.467Z,98121.25
2018-09-20T11:13:33.227Z,98121.95
2018-09-20T11:14:36.040Z,98122.24
2018-09-20T11:15:38.860Z,98136.24
2018-09-20T11:16:42.225Z,98116.42
2018-09-20T11:17:45.078Z,98117.83
2018-09-20T11:18:48.455Z,98120.17
2018-09-20T11:19:51.663Z,98144.06
2018-09-20T11:20:54.762Z,98128.55
2018-09-20T11:21:57.500Z,98164.03
2018-09-20T11:23:00.289Z,98132.73
2018-09-20T11:24:03.175Z,98141.27
2018-09-20T11:25:05.959Z,98127.09
2018-09-20T11:26:08.694Z,98121.40
2018-09-20T11:27:13.465Z,98118.73
2018-09-20T11:28:16.371Z,98131.46
2018-09-20T11:29:20.267Z,98118.54
2018-09-20T11:30:23.040Z,98112.77
2018-09-20T11:31:25.787Z,98125.37
2018-09-20T11:32:29.038Z,98141.17
2018-09-20T11:33:31.888Z,98129.33
2018-09-20T11:34:34.645Z,98114.09
2018-09-20T11:35:40.713Z,98110.03
2018-09-20T11:36:44.506Z,98104.33
2018-09-20T11:37:47.326Z,98112.19
2018-09-20T11:38:51.882Z,98110.95
2018-09-20T11:39:55.165Z,98109.91
2018-09-20T11:40:58.721Z,98108.36
2018-09-20T11:42:01.566Z,98099.92
2018-09-20T11:43:04.408Z,98094.66
2018-09-20T11:44:08.285Z,98098.08
2018-09-20T11:45:12.562Z,98107.30
2018-09-20T11:46:16.248Z,98128.98
2018-09-20T11:47:20.347Z,98107.72
2018-09-20T11:48:23.491Z,98123.45
2018-09-20T11:49:26.602Z,98112.02
2018-09-20T11:50:29.567Z,98105.45
2018-09-20T11:51:32.838Z,98115.03
2018-09-20T11:52:36.354Z,98100.35
2018-09-20T11:53:39.269Z,98098.77
2018-09-20T11:54:43.404Z,98081.17
2018-09-20T11:55:46.534Z,98084.43
2018-09-20T11:56:50.390Z,98084.66
2018-09-20T11:57:54.598Z,98092.49
2018-09-20T11:58:58.324Z,98105.95
2018-09-20T12:00:01.461Z,98094.41
2018-09-20T12:01:07.942Z,98084.73
2018-09-20T12:02:10.912Z,98101.61
2018-09-20T12:03:13.785Z,98093.30
2018-09-20T12:04:17.079Z,98096.37
2018-09-20T12:05:20.140Z,98082.98
2018-09-20T12:06:23.020Z,98070.55
2018-09-20T12:07:25.855Z,98082.34
2018-09-20T12:08:34.063Z,98095.41
2018-09-20T12:09:39.779Z,98082.20
2018-09-20T12:10:43.084Z,98082.63
2018-09-20T12:11:45.981Z,98085.84
2018-09-20T12:12:52.162Z,98079.70
2018-09-20T12:13:56.351Z,98084.17
2018-09-20T12:15:00.415Z,98082.06
2018-09-20T12:17:14.642Z,98083.55
2018-09-20T12:18:18.596Z,98086.85
2018-09-20T12:19:22.377Z,98092.69
2018-09-20T12:20:25.965Z,98088.49
2018-09-20T12:21:29.501Z,98074.08
2018-09-20T12:22:33.203Z,98079.91
2018-09-20T12:23:36.149Z,98081.66
2018-09-20T12:24:39.605Z,98074.56
2018-09-20T12:25:43.831Z,98086.16
2018-09-20T12:26:47.599Z,98068.67
2018-09-20T12:27:51.730Z,98085.23
2018-09-20T12:28:57.001Z,98068.31
2018-09-20T12:30:01.312Z,98064.31
2018-09-20T12:31:05.721Z,98072.00
2018-09-20T12:32:08.837Z,98084.25
2018-09-20T12:33:14.035Z,98088.67
2018-09-20T12:34:17.552Z,98064.93
2018-09-20T12:35:25.485Z,98049.33
2018-09-20T12:36:30.286Z,98053.82
2018-09-20T12:37:38.312Z,98050.20
2018-09-20T12:38:42.008Z,98052.91
2018-09-20T12:39:48.355Z,98053.87
2018-09-20T12:40:53.537Z,98068.07
2018-09-20T12:42:00.649Z,98058.52
2018-09-20T12:43:07.332Z,98066.95
2018-09-20T12:44:25.471Z,98066.08
2018-09-20T12:45:28.871Z,98072.34
2018-09-20T12:46:33.259Z,98034.80
2018-09-20T12:47:37.489Z,98039.38
2018-09-20T12:48:42.818Z,98047.45
2018-09-20T12:50:56.254Z,98040.36
2018-09-20T12:52:03.162Z,98045.58